sensor_id;sensor_type;location;lat;lon;timestamp;temperature;humidity
20091;DHT22;10205;49.678;6.560;2024-01-06T00:02:26;8.80;74.90
20091;DHT22;10205;49.678;6.560;2024-01-06T00:04:53;8.80;74.80
20091;DHT22;10205;49.678;6.560;2024-01-06T00:07:21;8.80;74.80
20091;DHT22;10205;49.678;6.560;2024-01-06T00:09:48;8.80;74.80
20091;DHT22;10205;49.678;6.560;2024-01-06T00:12:15;8.80;74.80
20091;DHT22;10205;49.678;6.560;2024-01-06T00:14:44;8.80;75.60
20091;DHT22;10205;49.678;6.560;2024-01-06T00:17:12;8.80;74.80
20091;DHT22;10205;49.678;6.560;2024-01-06T00:19:39;8.80;74.80
20091;DHT22;10205;49.678;6.560;2024-01-06T00:22:07;8.80;74.70
20091;DHT22;10205;49.678;6.560;2024-01-06T00:24:35;8.80;75.50
20091;DHT22;10205;49.678;6.560;2024-01-06T00:27:02;8.80;74.70
20091;DHT22;10205;49.678;6.560;2024-01-06T00:29:29;8.80;74.80
20091;DHT22;10205;49.678;6.560;2024-01-06T00:31:56;8.80;74.80
20091;DHT22;10205;49.678;6.560;2024-01-06T00:34:25;8.80;74.60
20091;DHT22;10205;49.678;6.560;2024-01-06T00:36:52;8.80;74.70
20091;DHT22;10205;49.678;6.560;2024-01-06T00:39:20;8.80;74.70
20091;DHT22;10205;49.678;6.560;2024-01-06T00:41:47;8.90;74.80
20091;DHT22;10205;49.678;6.560;2024-01-06T00:44:14;8.90;74.80
20091;DHT22;10205;49.678;6.560;2024-01-06T00:46:41;8.90;74.80
20091;DHT22;10205;49.678;6.560;2024-01-06T00:49:08;8.90;74.80
20091;DHT22;10205;49.678;6.560;2024-01-06T00:51:37;8.90;74.80
20091;DHT22;10205;49.678;6.560;2024-01-06T00:54:04;8.90;74.80
20091;DHT22;10205;49.678;6.560;2024-01-06T00:56:31;8.90;74.80
20091;DHT22;10205;49.678;6.560;2024-01-06T00:58:59;8.90;74.90
20091;DHT22;10205;49.678;6.560;2024-01-06T01:01:26;8.90;74.90
20091;DHT22;10205;49.678;6.560;2024-01-06T01:03:53;8.90;74.80
20091;DHT22;10205;49.678;6.560;2024-01-06T01:06:20;8.90;74.80
20091;DHT22;10205;49.678;6.560;2024-01-06T01:08:49;9.00;74.80
20091;DHT22;10205;49.678;6.560;2024-01-06T01:11:16;8.90;74.80
20091;DHT22;10205;49.678;6.560;2024-01-06T01:13:43;9.00;75.70
20091;DHT22;10205;49.678;6.560;2024-01-06T01:16:10;9.00;74.90
20091;DHT22;10205;49.678;6.560;2024-01-06T01:18:37;9.00;74.80
20091;DHT22;10205;49.678;6.560;2024-01-06T01:21:05;9.00;74.80
20091;DHT22;10205;49.678;6.560;2024-01-06T01:23:32;9.00;74.90
20091;DHT22;10205;49.678;6.560;2024-01-06T01:26:01;9.00;74.90
20091;DHT22;10205;49.678;6.560;2024-01-06T01:28:28;9.00;75.00
20091;DHT22;10205;49.678;6.560;2024-01-06T01:30:55;9.00;75.00
20091;DHT22;10205;49.678;6.560;2024-01-06T01:33:23;9.00;75.00
20091;DHT22;10205;49.678;6.560;2024-01-06T01:35:50;9.00;75.00
20091;DHT22;10205;49.678;6.560;2024-01-06T01:38:17;9.00;75.00
20091;DHT22;10205;49.678;6.560;2024-01-06T01:40:44;9.00;74.90
20091;DHT22;10205;49.678;6.560;2024-01-06T01:43:27;9.00;74.90
20091;DHT22;10205;49.678;6.560;2024-01-06T01:45:56;9.00;75.20
20091;DHT22;10205;49.678;6.560;2024-01-06T01:48:24;9.10;75.00
20091;DHT22;10205;49.678;6.560;2024-01-06T01:50:53;9.10;75.10
20091;DHT22;10205;49.678;6.560;2024-01-06T01:53:20;9.10;75.10
20091;DHT22;10205;49.678;6.560;2024-01-06T01:55:49;9.10;75.20
20091;DHT22;10205;49.678;6.560;2024-01-06T01:58:17;9.10;75.10
20091;DHT22;10205;49.678;6.560;2024-01-06T02:00:46;9.10;75.10
20091;DHT22;10205;49.678;6.560;2024-01-06T02:03:14;9.10;75.10
20091;DHT22;10205;49.678;6.560;2024-01-06T02:05:41;9.10;75.10
20091;DHT22;10205;49.678;6.560;2024-01-06T02:08:08;9.10;75.10
20091;DHT22;10205;49.678;6.560;2024-01-06T02:10:36;9.10;75.10
20091;DHT22;10205;49.678;6.560;2024-01-06T02:13:10;9.10;75.10
20091;DHT22;10205;49.678;6.560;2024-01-06T02:15:37;9.10;75.30
20091;DHT22;10205;49.678;6.560;2024-01-06T02:18:07;9.10;75.20
20091;DHT22;10205;49.678;6.560;2024-01-06T02:20:34;9.10;75.20
20091;DHT22;10205;49.678;6.560;2024-01-06T02:23:03;9.10;75.10
20091;DHT22;10205;49.678;6.560;2024-01-06T02:25:30;9.10;75.10
20091;DHT22;10205;49.678;6.560;2024-01-06T02:27:58;9.10;75.10
20091;DHT22;10205;49.678;6.560;2024-01-06T02:30:26;9.20;75.20
20091;DHT22;10205;49.678;6.560;2024-01-06T02:32:53;9.10;76.00
20091;DHT22;10205;49.678;6.560;2024-01-06T02:35:21;9.10;75.20
20091;DHT22;10205;49.678;6.560;2024-01-06T02:37:48;9.20;75.30
20091;DHT22;10205;49.678;6.560;2024-01-06T02:40:16;9.20;75.30
20091;DHT22;10205;49.678;6.560;2024-01-06T02:42:44;9.20;75.30
20091;DHT22;10205;49.678;6.560;2024-01-06T02:45:11;9.20;75.30
20091;DHT22;10205;49.678;6.560;2024-01-06T02:47:38;9.20;75.30
20091;DHT22;10205;49.678;6.560;2024-01-06T02:50:06;9.20;75.30
20091;DHT22;10205;49.678;6.560;2024-01-06T02:52:33;9.20;75.40
20091;DHT22;10205;49.678;6.560;2024-01-06T02:55:01;9.20;75.30
20091;DHT22;10205;49.678;6.560;2024-01-06T02:57:30;9.20;75.30
20091;DHT22;10205;49.678;6.560;2024-01-06T02:59:57;9.20;76.20
20091;DHT22;10205;49.678;6.560;2024-01-06T03:02:24;9.30;76.20
20091;DHT22;10205;49.678;6.560;2024-01-06T03:04:52;9.20;75.30
20091;DHT22;10205;49.678;6.560;2024-01-06T03:07:19;9.20;75.30
20091;DHT22;10205;49.678;6.560;2024-01-06T03:09:46;9.20;75.30
20091;DHT22;10205;49.678;6.560;2024-01-06T03:12:13;9.30;75.30
20091;DHT22;10205;49.678;6.560;2024-01-06T03:14:42;9.30;75.20
20091;DHT22;10205;49.678;6.560;2024-01-06T03:17:09;9.30;75.20
20091;DHT22;10205;49.678;6.560;2024-01-06T03:19:37;9.30;75.10
20091;DHT22;10205;49.678;6.560;2024-01-06T03:22:04;9.30;75.10
20091;DHT22;10205;49.678;6.560;2024-01-06T03:24:31;9.30;75.00
20091;DHT22;10205;49.678;6.560;2024-01-06T03:26:58;9.30;75.10
20091;DHT22;10205;49.678;6.560;2024-01-06T03:29:25;9.30;75.10
20091;DHT22;10205;49.678;6.560;2024-01-06T03:31:54;9.30;75.20
20091;DHT22;10205;49.678;6.560;2024-01-06T03:34:21;9.30;75.20
20091;DHT22;10205;49.678;6.560;2024-01-06T03:36:48;9.30;75.30
20091;DHT22;10205;49.678;6.560;2024-01-06T03:39:15;9.30;75.30
20091;DHT22;10205;49.678;6.560;2024-01-06T03:41:43;9.30;75.30
20091;DHT22;10205;49.678;6.560;2024-01-06T03:44:10;9.30;75.30
20091;DHT22;10205;49.678;6.560;2024-01-06T03:46:37;9.30;76.10
20091;DHT22;10205;49.678;6.560;2024-01-06T03:49:06;9.40;75.30
20091;DHT22;10205;49.678;6.560;2024-01-06T03:51:33;9.30;75.30
20091;DHT22;10205;49.678;6.560;2024-01-06T03:54:00;9.30;75.30
20091;DHT22;10205;49.678;6.560;2024-01-06T03:56:27;9.30;75.30
20091;DHT22;10205;49.678;6.560;2024-01-06T03:58:54;9.30;75.30
20091;DHT22;10205;49.678;6.560;2024-01-06T04:01:21;9.30;75.30
20091;DHT22;10205;49.678;6.560;2024-01-06T04:03:48;9.30;75.40
20091;DHT22;10205;49.678;6.560;2024-01-06T04:06:17;9.30;75.30
20091;DHT22;10205;49.678;6.560;2024-01-06T04:08:44;9.30;75.30
20091;DHT22;10205;49.678;6.560;2024-01-06T04:11:11;9.40;75.40
20091;DHT22;10205;49.678;6.560;2024-01-06T04:13:38;9.40;75.40
20091;DHT22;10205;49.678;6.560;2024-01-06T04:16:05;9.40;75.40
20091;DHT22;10205;49.678;6.560;2024-01-06T04:18:33;9.40;75.50
20091;DHT22;10205;49.678;6.560;2024-01-06T04:21:00;9.40;75.40
20091;DHT22;10205;49.678;6.560;2024-01-06T04:23:28;9.40;75.30
20091;DHT22;10205;49.678;6.560;2024-01-06T04:25:55;9.40;75.40
20091;DHT22;10205;49.678;6.560;2024-01-06T04:28:22;9.40;75.40
20091;DHT22;10205;49.678;6.560;2024-01-06T04:30:51;9.40;75.40
20091;DHT22;10205;49.678;6.560;2024-01-06T04:33:18;9.40;75.50
20091;DHT22;10205;49.678;6.560;2024-01-06T04:35:47;9.40;75.40
20091;DHT22;10205;49.678;6.560;2024-01-06T04:38:15;9.40;75.50
20091;DHT22;10205;49.678;6.560;2024-01-06T04:40:44;9.40;75.50
20091;DHT22;10205;49.678;6.560;2024-01-06T04:43:11;9.40;75.50
20091;DHT22;10205;49.678;6.560;2024-01-06T04:45:38;9.40;75.50
20091;DHT22;10205;49.678;6.560;2024-01-06T04:48:06;9.40;75.50
20091;DHT22;10205;49.678;6.560;2024-01-06T04:50:33;9.50;75.60
20091;DHT22;10205;49.678;6.560;2024-01-06T04:53:01;9.40;75.50
20091;DHT22;10205;49.678;6.560;2024-01-06T04:55:28;9.50;75.60
20091;DHT22;10205;49.678;6.560;2024-01-06T04:57:57;9.40;75.60
20091;DHT22;10205;49.678;6.560;2024-01-06T05:00:24;9.50;75.60
20091;DHT22;10205;49.678;6.560;2024-01-06T05:02:51;9.40;75.60
20091;DHT22;10205;49.678;6.560;2024-01-06T05:05:18;9.40;75.50
20091;DHT22;10205;49.678;6.560;2024-01-06T05:07:47;9.50;75.50
20091;DHT22;10205;49.678;6.560;2024-01-06T05:10:14;9.50;75.50
20091;DHT22;10205;49.678;6.560;2024-01-06T05:12:42;9.50;75.50
20091;DHT22;10205;49.678;6.560;2024-01-06T05:15:11;9.50;75.50
20091;DHT22;10205;49.678;6.560;2024-01-06T05:17:38;9.50;75.50
20091;DHT22;10205;49.678;6.560;2024-01-06T05:20:06;9.50;75.30
20091;DHT22;10205;49.678;6.560;2024-01-06T05:22:34;9.60;75.30
20091;DHT22;10205;49.678;6.560;2024-01-06T05:25:01;9.60;75.20
20091;DHT22;10205;49.678;6.560;2024-01-06T05:27:29;9.60;75.10
20091;DHT22;10205;49.678;6.560;2024-01-06T05:29:56;9.60;75.10
20091;DHT22;10205;49.678;6.560;2024-01-06T05:32:24;9.60;75.10
20091;DHT22;10205;49.678;6.560;2024-01-06T05:34:51;9.60;75.00
20091;DHT22;10205;49.678;6.560;2024-01-06T05:37:18;9.70;75.00
20091;DHT22;10205;49.678;6.560;2024-01-06T05:39:45;9.60;75.00
20091;DHT22;10205;49.678;6.560;2024-01-06T05:42:13;9.60;75.00
20091;DHT22;10205;49.678;6.560;2024-01-06T05:44:40;9.60;75.90
20091;DHT22;10205;49.678;6.560;2024-01-06T05:47:08;9.60;75.10
20091;DHT22;10205;49.678;6.560;2024-01-06T05:49:40;9.60;75.00
20091;DHT22;10205;49.678;6.560;2024-01-06T05:52:08;9.60;75.00
20091;DHT22;10205;49.678;6.560;2024-01-06T05:54:35;9.70;75.00
20091;DHT22;10205;49.678;6.560;2024-01-06T05:57:02;9.70;75.10
20091;DHT22;10205;49.678;6.560;2024-01-06T05:59:32;9.70;75.00
20091;DHT22;10205;49.678;6.560;2024-01-06T06:01:59;9.70;75.10
20091;DHT22;10205;49.678;6.560;2024-01-06T06:04:27;9.70;75.00
20091;DHT22;10205;49.678;6.560;2024-01-06T06:06:55;9.70;75.00
20091;DHT22;10205;49.678;6.560;2024-01-06T06:09:22;9.70;75.00
20091;DHT22;10205;49.678;6.560;2024-01-06T06:11:49;9.70;75.00
20091;DHT22;10205;49.678;6.560;2024-01-06T06:14:17;9.70;74.90
20091;DHT22;10205;49.678;6.560;2024-01-06T06:16:44;9.70;74.90
20091;DHT22;10205;49.678;6.560;2024-01-06T06:19:13;9.70;74.90
20091;DHT22;10205;49.678;6.560;2024-01-06T06:21:40;9.70;75.70
20091;DHT22;10205;49.678;6.560;2024-01-06T06:24:08;9.70;74.90
20091;DHT22;10205;49.678;6.560;2024-01-06T06:26:35;9.70;74.90
20091;DHT22;10205;49.678;6.560;2024-01-06T06:29:03;9.70;74.90
20091;DHT22;10205;49.678;6.560;2024-01-06T06:31:30;9.70;74.80
20091;DHT22;10205;49.678;6.560;2024-01-06T06:33:57;9.80;75.70
20091;DHT22;10205;49.678;6.560;2024-01-06T06:36:24;9.70;74.90
20091;DHT22;10205;49.678;6.560;2024-01-06T06:38:51;9.70;74.90
20091;DHT22;10205;49.678;6.560;2024-01-06T06:41:21;9.70;74.90
20091;DHT22;10205;49.678;6.560;2024-01-06T06:43:48;9.70;74.90
20091;DHT22;10205;49.678;6.560;2024-01-06T06:46:16;9.70;75.00
20091;DHT22;10205;49.678;6.560;2024-01-06T06:48:43;9.70;74.90
20091;DHT22;10205;49.678;6.560;2024-01-06T06:51:11;9.70;75.30
20091;DHT22;10205;49.678;6.560;2024-01-06T06:53:38;9.80;75.00
20091;DHT22;10205;49.678;6.560;2024-01-06T06:56:06;9.80;75.10
20091;DHT22;10205;49.678;6.560;2024-01-06T06:58:34;9.80;75.10
20091;DHT22;10205;49.678;6.560;2024-01-06T07:01:02;9.70;75.00
20091;DHT22;10205;49.678;6.560;2024-01-06T07:03:31;9.80;75.00
20091;DHT22;10205;49.678;6.560;2024-01-06T07:05:58;9.80;75.00
20091;DHT22;10205;49.678;6.560;2024-01-06T07:08:25;9.80;75.00
20091;DHT22;10205;49.678;6.560;2024-01-06T07:10:53;9.80;75.00
20091;DHT22;10205;49.678;6.560;2024-01-06T07:13:20;9.80;74.90
20091;DHT22;10205;49.678;6.560;2024-01-06T07:15:48;9.80;74.90
20091;DHT22;10205;49.678;6.560;2024-01-06T07:18:15;9.80;74.90
20091;DHT22;10205;49.678;6.560;2024-01-06T07:20:44;9.80;74.80
20091;DHT22;10205;49.678;6.560;2024-01-06T07:23:11;9.80;74.90
20091;DHT22;10205;49.678;6.560;2024-01-06T07:25:39;9.80;74.90
20091;DHT22;10205;49.678;6.560;2024-01-06T07:28:06;9.80;74.80
20091;DHT22;10205;49.678;6.560;2024-01-06T07:30:33;9.80;74.80
20091;DHT22;10205;49.678;6.560;2024-01-06T07:33:02;9.80;74.80
20091;DHT22;10205;49.678;6.560;2024-01-06T07:35:30;9.80;74.90
20091;DHT22;10205;49.678;6.560;2024-01-06T07:37:57;9.80;74.90
20091;DHT22;10205;49.678;6.560;2024-01-06T07:40:25;9.80;75.00
20091;DHT22;10205;49.678;6.560;2024-01-06T07:42:52;9.80;74.90
20091;DHT22;10205;49.678;6.560;2024-01-06T07:45:19;9.80;75.00
20091;DHT22;10205;49.678;6.560;2024-01-06T07:47:46;9.80;75.00
20091;DHT22;10205;49.678;6.560;2024-01-06T07:50:15;9.80;75.00
20091;DHT22;10205;49.678;6.560;2024-01-06T07:52:42;9.80;75.00
20091;DHT22;10205;49.678;6.560;2024-01-06T07:55:09;9.80;75.10
20091;DHT22;10205;49.678;6.560;2024-01-06T07:57:37;9.80;75.10
20091;DHT22;10205;49.678;6.560;2024-01-06T08:00:05;9.80;75.10
20091;DHT22;10205;49.678;6.560;2024-01-06T08:02:33;9.80;75.00
20091;DHT22;10205;49.678;6.560;2024-01-06T08:05:00;9.80;75.00
20091;DHT22;10205;49.678;6.560;2024-01-06T08:07:28;9.80;75.80
20091;DHT22;10205;49.678;6.560;2024-01-06T08:09:55;9.80;75.00
20091;DHT22;10205;49.678;6.560;2024-01-06T08:12:22;9.80;75.00
20091;DHT22;10205;49.678;6.560;2024-01-06T08:14:50;9.80;75.00
20091;DHT22;10205;49.678;6.560;2024-01-06T08:17:17;9.80;75.10
20091;DHT22;10205;49.678;6.560;2024-01-06T08:19:45;9.80;75.10
20091;DHT22;10205;49.678;6.560;2024-01-06T08:22:13;9.80;75.10
20091;DHT22;10205;49.678;6.560;2024-01-06T08:24:41;9.80;75.10
20091;DHT22;10205;49.678;6.560;2024-01-06T08:27:08;9.80;75.00
20091;DHT22;10205;49.678;6.560;2024-01-06T08:29:35;9.80;75.00
20091;DHT22;10205;49.678;6.560;2024-01-06T08:32:03;9.80;75.00
20091;DHT22;10205;49.678;6.560;2024-01-06T08:34:31;9.90;75.00
20091;DHT22;10205;49.678;6.560;2024-01-06T08:36:58;9.90;75.00
20091;DHT22;10205;49.678;6.560;2024-01-06T08:39:25;9.90;75.00
20091;DHT22;10205;49.678;6.560;2024-01-06T08:41:54;9.90;75.00
20091;DHT22;10205;49.678;6.560;2024-01-06T08:44:21;9.90;75.00
20091;DHT22;10205;49.678;6.560;2024-01-06T08:46:48;9.90;75.00
20091;DHT22;10205;49.678;6.560;2024-01-06T08:49:15;9.90;74.90
20091;DHT22;10205;49.678;6.560;2024-01-06T08:51:43;9.90;75.80
20091;DHT22;10205;49.678;6.560;2024-01-06T08:54:11;9.90;74.90
20091;DHT22;10205;49.678;6.560;2024-01-06T08:56:38;9.90;74.90
20091;DHT22;10205;49.678;6.560;2024-01-06T08:59:06;9.90;74.90
20091;DHT22;10205;49.678;6.560;2024-01-06T09:01:35;9.90;74.90
20091;DHT22;10205;49.678;6.560;2024-01-06T09:04:03;9.90;74.90
20091;DHT22;10205;49.678;6.560;2024-01-06T09:06:32;9.90;75.00
20091;DHT22;10205;49.678;6.560;2024-01-06T09:08:59;9.90;75.00
20091;DHT22;10205;49.678;6.560;2024-01-06T09:11:26;9.90;74.90
20091;DHT22;10205;49.678;6.560;2024-01-06T09:13:53;10.00;75.00
20091;DHT22;10205;49.678;6.560;2024-01-06T09:16:22;10.00;74.90
20091;DHT22;10205;49.678;6.560;2024-01-06T09:18:49;10.00;75.00
20091;DHT22;10205;49.678;6.560;2024-01-06T09:21:16;10.00;75.00
20091;DHT22;10205;49.678;6.560;2024-01-06T09:23:44;10.00;75.00
20091;DHT22;10205;49.678;6.560;2024-01-06T09:26:11;10.00;75.00
20091;DHT22;10205;49.678;6.560;2024-01-06T09:28:38;10.00;75.00
20091;DHT22;10205;49.678;6.560;2024-01-06T09:31:05;10.00;74.90
20091;DHT22;10205;49.678;6.560;2024-01-06T09:33:34;10.00;74.90
20091;DHT22;10205;49.678;6.560;2024-01-06T09:36:01;10.00;74.90
20091;DHT22;10205;49.678;6.560;2024-01-06T09:38:29;10.00;75.00
20091;DHT22;10205;49.678;6.560;2024-01-06T09:40:56;10.10;75.00
20091;DHT22;10205;49.678;6.560;2024-01-06T09:43:24;10.10;75.00
20091;DHT22;10205;49.678;6.560;2024-01-06T09:45:58;10.10;75.00
20091;DHT22;10205;49.678;6.560;2024-01-06T09:48:39;10.10;74.90
20091;DHT22;10205;49.678;6.560;2024-01-06T09:51:10;10.10;74.80
20091;DHT22;10205;49.678;6.560;2024-01-06T09:53:44;10.20;74.80
20091;DHT22;10205;49.678;6.560;2024-01-06T09:56:16;10.20;74.80
20091;DHT22;10205;49.678;6.560;2024-01-06T09:58:44;10.20;74.70
20091;DHT22;10205;49.678;6.560;2024-01-06T10:01:11;10.20;74.70
20091;DHT22;10205;49.678;6.560;2024-01-06T10:03:41;10.20;74.80
20091;DHT22;10205;49.678;6.560;2024-01-06T10:06:09;10.20;74.80
20091;DHT22;10205;49.678;6.560;2024-01-06T10:08:36;10.20;74.80
20091;DHT22;10205;49.678;6.560;2024-01-06T10:11:06;10.20;74.80
20091;DHT22;10205;49.678;6.560;2024-01-06T10:13:33;10.20;74.80
20091;DHT22;10205;49.678;6.560;2024-01-06T10:16:00;10.20;74.80
20091;DHT22;10205;49.678;6.560;2024-01-06T10:18:28;10.20;74.80
20091;DHT22;10205;49.678;6.560;2024-01-06T10:20:57;10.20;74.80
20091;DHT22;10205;49.678;6.560;2024-01-06T10:23:28;10.30;75.00
20091;DHT22;10205;49.678;6.560;2024-01-06T10:25:56;10.30;74.90
20091;DHT22;10205;49.678;6.560;2024-01-06T10:28:23;10.30;75.00
20091;DHT22;10205;49.678;6.560;2024-01-06T10:30:52;10.30;74.80
20091;DHT22;10205;49.678;6.560;2024-01-06T10:33:20;10.30;74.70
20091;DHT22;10205;49.678;6.560;2024-01-06T10:35:48;10.30;74.70
20091;DHT22;10205;49.678;6.560;2024-01-06T10:38:17;10.30;74.60
20091;DHT22;10205;49.678;6.560;2024-01-06T10:40:58;10.30;74.70
20091;DHT22;10205;49.678;6.560;2024-01-06T10:43:26;10.30;74.60
20091;DHT22;10205;49.678;6.560;2024-01-06T10:45:56;10.30;74.60
20091;DHT22;10205;49.678;6.560;2024-01-06T10:48:25;10.30;74.60
20091;DHT22;10205;49.678;6.560;2024-01-06T10:50:53;10.40;74.60
20091;DHT22;10205;49.678;6.560;2024-01-06T10:53:23;10.30;74.40
20091;DHT22;10205;49.678;6.560;2024-01-06T10:55:53;10.30;74.40
20091;DHT22;10205;49.678;6.560;2024-01-06T10:58:21;10.40;74.40
20091;DHT22;10205;49.678;6.560;2024-01-06T11:00:49;10.40;74.40
20091;DHT22;10205;49.678;6.560;2024-01-06T11:03:17;10.40;74.30
20091;DHT22;10205;49.678;6.560;2024-01-06T11:05:46;10.40;75.10
20091;DHT22;10205;49.678;6.560;2024-01-06T11:08:17;10.40;74.30
20091;DHT22;10205;49.678;6.560;2024-01-06T11:10:47;10.40;74.20
20091;DHT22;10205;49.678;6.560;2024-01-06T11:13:16;10.40;74.40
20091;DHT22;10205;49.678;6.560;2024-01-06T11:15:49;10.50;75.00
20091;DHT22;10205;49.678;6.560;2024-01-06T11:18:34;10.50;74.20
20091;DHT22;10205;49.678;6.560;2024-01-06T11:21:18;10.50;74.10
20091;DHT22;10205;49.678;6.560;2024-01-06T11:24:18;10.50;74.00
20091;DHT22;10205;49.678;6.560;2024-01-06T11:26:52;10.50;74.00
20091;DHT22;10205;49.678;6.560;2024-01-06T11:29:22;10.50;74.10
20091;DHT22;10205;49.678;6.560;2024-01-06T11:32:26;10.50;74.10
20091;DHT22;10205;49.678;6.560;2024-01-06T11:35:05;10.50;74.10
20091;DHT22;10205;49.678;6.560;2024-01-06T11:37:50;10.50;74.20
20091;DHT22;10205;49.678;6.560;2024-01-06T11:40:34;10.60;74.20
20091;DHT22;10205;49.678;6.560;2024-01-06T11:43:07;10.60;74.20
20091;DHT22;10205;49.678;6.560;2024-01-06T11:45:38;10.60;74.20
20091;DHT22;10205;49.678;6.560;2024-01-06T11:48:08;10.60;74.10
20091;DHT22;10205;49.678;6.560;2024-01-06T11:50:39;10.70;74.10
20091;DHT22;10205;49.678;6.560;2024-01-06T11:53:08;10.70;74.10
20091;DHT22;10205;49.678;6.560;2024-01-06T11:55:35;10.70;74.10
20091;DHT22;10205;49.678;6.560;2024-01-06T11:58:06;10.70;74.00
20091;DHT22;10205;49.678;6.560;2024-01-06T12:00:34;10.70;74.00
20091;DHT22;10205;49.678;6.560;2024-01-06T12:03:03;10.70;73.80
20091;DHT22;10205;49.678;6.560;2024-01-06T12:05:30;10.70;73.70
20091;DHT22;10205;49.678;6.560;2024-01-06T12:07:59;10.70;73.70
20091;DHT22;10205;49.678;6.560;2024-01-06T12:10:29;10.70;73.70
20091;DHT22;10205;49.678;6.560;2024-01-06T12:12:57;10.70;73.60
20091;DHT22;10205;49.678;6.560;2024-01-06T12:15:26;10.70;73.60
20091;DHT22;10205;49.678;6.560;2024-01-06T12:17:54;10.80;73.70
20091;DHT22;10205;49.678;6.560;2024-01-06T12:20:22;10.80;74.50
20091;DHT22;10205;49.678;6.560;2024-01-06T12:22:52;10.80;73.70
20091;DHT22;10205;49.678;6.560;2024-01-06T12:25:21;10.80;73.70
20091;DHT22;10205;49.678;6.560;2024-01-06T12:27:49;10.80;73.70
20091;DHT22;10205;49.678;6.560;2024-01-06T12:30:18;10.80;73.40
20091;DHT22;10205;49.678;6.560;2024-01-06T12:32:48;10.80;73.30
20091;DHT22;10205;49.678;6.560;2024-01-06T12:35:17;10.90;73.40
20091;DHT22;10205;49.678;6.560;2024-01-06T12:37:46;10.90;73.40
20091;DHT22;10205;49.678;6.560;2024-01-06T12:40:14;10.90;73.30
20091;DHT22;10205;49.678;6.560;2024-01-06T12:42:43;10.90;73.30
20091;DHT22;10205;49.678;6.560;2024-01-06T12:45:10;10.90;74.10
20091;DHT22;10205;49.678;6.560;2024-01-06T12:47:38;10.90;73.10
20091;DHT22;10205;49.678;6.560;2024-01-06T12:50:08;10.90;73.00
20091;DHT22;10205;49.678;6.560;2024-01-06T12:52:36;10.90;73.00
20091;DHT22;10205;49.678;6.560;2024-01-06T12:55:07;10.90;73.20
20091;DHT22;10205;49.678;6.560;2024-01-06T12:57:36;10.90;72.90
20091;DHT22;10205;49.678;6.560;2024-01-06T13:00:04;10.90;72.90
20091;DHT22;10205;49.678;6.560;2024-01-06T13:02:34;10.90;72.80
20091;DHT22;10205;49.678;6.560;2024-01-06T13:05:01;10.90;72.90
20091;DHT22;10205;49.678;6.560;2024-01-06T13:07:32;10.90;73.60
20091;DHT22;10205;49.678;6.560;2024-01-06T13:09:59;10.90;72.70
20091;DHT22;10205;49.678;6.560;2024-01-06T13:12:26;10.90;72.60
20091;DHT22;10205;49.678;6.560;2024-01-06T13:14:54;10.90;72.60
20091;DHT22;10205;49.678;6.560;2024-01-06T13:17:22;10.90;72.40
20091;DHT22;10205;49.678;6.560;2024-01-06T13:19:49;10.90;72.40
20091;DHT22;10205;49.678;6.560;2024-01-06T13:22:18;10.90;72.50
20091;DHT22;10205;49.678;6.560;2024-01-06T13:24:48;10.90;72.50
20091;DHT22;10205;49.678;6.560;2024-01-06T13:27:16;10.80;72.40
20091;DHT22;10205;49.678;6.560;2024-01-06T13:29:43;10.80;72.30
20091;DHT22;10205;49.678;6.560;2024-01-06T13:32:10;10.80;72.30
20091;DHT22;10205;49.678;6.560;2024-01-06T13:34:39;10.80;72.30
20091;DHT22;10205;49.678;6.560;2024-01-06T13:37:06;10.80;72.40
20091;DHT22;10205;49.678;6.560;2024-01-06T13:39:34;10.80;72.30
20091;DHT22;10205;49.678;6.560;2024-01-06T13:42:02;10.80;72.40
20091;DHT22;10205;49.678;6.560;2024-01-06T13:44:30;10.80;73.10
20091;DHT22;10205;49.678;6.560;2024-01-06T13:46:57;10.80;72.30
20091;DHT22;10205;49.678;6.560;2024-01-06T13:49:24;10.80;72.30
20091;DHT22;10205;49.678;6.560;2024-01-06T13:51:51;10.80;72.20
20091;DHT22;10205;49.678;6.560;2024-01-06T13:54:18;10.70;72.30
20091;DHT22;10205;49.678;6.560;2024-01-06T13:56:45;10.70;72.30
20091;DHT22;10205;49.678;6.560;2024-01-06T13:59:14;10.80;72.30
20091;DHT22;10205;49.678;6.560;2024-01-06T14:01:42;10.70;72.30
20091;DHT22;10205;49.678;6.560;2024-01-06T14:04:09;10.70;72.20
20091;DHT22;10205;49.678;6.560;2024-01-06T14:06:37;10.70;72.10
20091;DHT22;10205;49.678;6.560;2024-01-06T14:09:05;10.70;72.00
20091;DHT22;10205;49.678;6.560;2024-01-06T14:11:32;10.70;72.00
20091;DHT22;10205;49.678;6.560;2024-01-06T14:14:00;10.60;71.90
20091;DHT22;10205;49.678;6.560;2024-01-06T14:16:28;10.60;71.90
20091;DHT22;10205;49.678;6.560;2024-01-06T14:18:56;10.60;71.90
20091;DHT22;10205;49.678;6.560;2024-01-06T14:21:23;10.60;71.90
20091;DHT22;10205;49.678;6.560;2024-01-06T14:23:50;10.60;71.90
20091;DHT22;10205;49.678;6.560;2024-01-06T14:26:17;10.50;72.00
20091;DHT22;10205;49.678;6.560;2024-01-06T14:28:45;10.50;72.20
20091;DHT22;10205;49.678;6.560;2024-01-06T14:31:12;10.50;72.10
20091;DHT22;10205;49.678;6.560;2024-01-06T14:33:41;10.50;72.10
20091;DHT22;10205;49.678;6.560;2024-01-06T14:36:08;10.50;71.90
20091;DHT22;10205;49.678;6.560;2024-01-06T14:38:35;10.50;72.10
20091;DHT22;10205;49.678;6.560;2024-01-06T14:41:02;10.50;72.00
20091;DHT22;10205;49.678;6.560;2024-01-06T14:43:30;10.50;71.90
20091;DHT22;10205;49.678;6.560;2024-01-06T14:45:58;10.40;71.90
20091;DHT22;10205;49.678;6.560;2024-01-06T14:48:25;10.50;71.90
20091;DHT22;10205;49.678;6.560;2024-01-06T14:50:54;10.50;72.80
20091;DHT22;10205;49.678;6.560;2024-01-06T14:53:21;10.50;71.90
20091;DHT22;10205;49.678;6.560;2024-01-06T14:55:48;10.50;71.90
20091;DHT22;10205;49.678;6.560;2024-01-06T14:58:15;10.50;72.80
20091;DHT22;10205;49.678;6.560;2024-01-06T15:00:42;10.50;72.10
20091;DHT22;10205;49.678;6.560;2024-01-06T15:03:10;10.50;73.00
20091;DHT22;10205;49.678;6.560;2024-01-06T15:05:37;10.50;72.30
20091;DHT22;10205;49.678;6.560;2024-01-06T15:08:08;10.50;73.40
20091;DHT22;10205;49.678;6.560;2024-01-06T15:10:37;10.50;72.60
20091;DHT22;10205;49.678;6.560;2024-01-06T15:13:05;10.50;72.50
20091;DHT22;10205;49.678;6.560;2024-01-06T15:15:32;10.50;72.50
20091;DHT22;10205;49.678;6.560;2024-01-06T15:18:00;10.50;72.50
20091;DHT22;10205;49.678;6.560;2024-01-06T15:20:30;10.50;72.20
20091;DHT22;10205;49.678;6.560;2024-01-06T15:22:58;10.50;72.20
20091;DHT22;10205;49.678;6.560;2024-01-06T15:25:26;10.50;72.10
20091;DHT22;10205;49.678;6.560;2024-01-06T15:27:53;10.50;72.00
20091;DHT22;10205;49.678;6.560;2024-01-06T15:30:20;10.50;71.80
20091;DHT22;10205;49.678;6.560;2024-01-06T15:32:52;10.50;71.70
20091;DHT22;10205;49.678;6.560;2024-01-06T15:35:20;10.50;71.70
20091;DHT22;10205;49.678;6.560;2024-01-06T15:37:47;10.50;72.10
20091;DHT22;10205;49.678;6.560;2024-01-06T15:40:15;10.50;72.10
20091;DHT22;10205;49.678;6.560;2024-01-06T15:42:45;10.50;71.90
20091;DHT22;10205;49.678;6.560;2024-01-06T15:45:18;10.50;71.70
20091;DHT22;10205;49.678;6.560;2024-01-06T15:47:45;10.50;71.70